Terminal Aerodrome Forecast
Issued by NWS

Home | Current Version | Previous Version | Graphics & Text | Print | Product List | Glossary On
Versions: 1 2 3 4 5 6 7 8 9 10 11 12 13 14 15 16 17
000
FTUS42 KMHX 041720
TAFISO
TAF
KISO 041720Z 0418/0518 VRB03KT P6SM VCSH OVC070
     FM050000 07006KT 4SM -SHRA BR OVC030
     FM050300 11006KT 2SM SHRA BR OVC015
     FM050600 06005KT 2SM -RA BR SCT002 OVC007
     FM051300 36008KT 6SM BR OVC015
     FM051500 35006KT P6SM BKN120
      AMD LTD TO CLD VIS AND WIND=

USA.gov is the U.S. government's official web portal to all federal, state and local government web resources and services.